sensor_id;sensor_type;location;lat;lon;timestamp;P1;durP1;ratioP1;P2;durP2;ratioP2
47589;SDS011;33316;52.298;9.056;2024-02-23T00:00:06;0.82;;;0.30;;
47589;SDS011;33316;52.298;9.056;2024-02-23T00:02:36;1.05;;;0.40;;
47589;SDS011;33316;52.298;9.056;2024-02-23T00:05:02;1.05;;;0.40;;
47589;SDS011;33316;52.298;9.056;2024-02-23T00:07:31;1.95;;;0.40;;
47589;SDS011;33316;52.298;9.056;2024-02-23T00:09:57;1.27;;;0.52;;
47589;SDS011;33316;52.298;9.056;2024-02-23T00:12:24;2.20;;;0.47;;
47589;SDS011;33316;52.298;9.056;2024-02-23T00:14:51;2.50;;;0.30;;
47589;SDS011;33316;52.298;9.056;2024-02-23T00:17:18;1.08;;;0.40;;
47589;SDS011;33316;52.298;9.056;2024-02-23T00:19:45;2.85;;;0.40;;
47589;SDS011;33316;52.298;9.056;2024-02-23T00:22:12;2.03;;;0.40;;
47589;SDS011;33316;52.298;9.056;2024-02-23T00:24:40;0.63;;;0.30;;
47589;SDS011;33316;52.298;9.056;2024-02-23T00:27:07;2.25;;;0.40;;
47589;SDS011;33316;52.298;9.056;2024-02-23T00:29:34;1.05;;;0.30;;
47589;SDS011;33316;52.298;9.056;2024-02-23T00:32:01;0.80;;;0.30;;
47589;SDS011;33316;52.298;9.056;2024-02-23T00:34:28;1.17;;;0.35;;
47589;SDS011;33316;52.298;9.056;2024-02-23T00:36:57;1.20;;;0.43;;
47589;SDS011;33316;52.298;9.056;2024-02-23T00:39:23;0.93;;;0.30;;
47589;SDS011;33316;52.298;9.056;2024-02-23T00:41:52;0.20;;;0.20;;
47589;SDS011;33316;52.298;9.056;2024-02-23T00:44:18;0.47;;;0.30;;
47589;SDS011;33316;52.298;9.056;2024-02-23T00:46:45;0.95;;;0.20;;
47589;SDS011;33316;52.298;9.056;2024-02-23T00:49:12;1.05;;;0.47;;
47589;SDS011;33316;52.298;9.056;2024-02-23T00:51:39;0.88;;;0.30;;
47589;SDS011;33316;52.298;9.056;2024-02-23T00:54:05;0.22;;;0.22;;
47589;SDS011;33316;52.298;9.056;2024-02-23T00:56:33;0.70;;;0.30;;
47589;SDS011;33316;52.298;9.056;2024-02-23T00:59:01;1.05;;;0.50;;
47589;SDS011;33316;52.298;9.056;2024-02-23T01:01:28;0.52;;;0.20;;
47589;SDS011;33316;52.298;9.056;2024-02-23T01:03:57;0.22;;;0.20;;
47589;SDS011;33316;52.298;9.056;2024-02-23T01:06:23;0.65;;;0.20;;
47589;SDS011;33316;52.298;9.056;2024-02-23T01:08:52;1.08;;;0.22;;
47589;SDS011;33316;52.298;9.056;2024-02-23T01:11:19;0.50;;;0.20;;
47589;SDS011;33316;52.298;9.056;2024-02-23T01:13:46;0.38;;;0.20;;
47589;SDS011;33316;52.298;9.056;2024-02-23T01:16:14;0.20;;;0.20;;
47589;SDS011;33316;52.298;9.056;2024-02-23T01:18:41;0.30;;;0.10;;
47589;SDS011;33316;52.298;9.056;2024-02-23T01:21:08;0.43;;;0.17;;
47589;SDS011;33316;52.298;9.056;2024-02-23T01:23:35;0.10;;;0.10;;
47589;SDS011;33316;52.298;9.056;2024-02-23T01:26:02;0.10;;;0.10;;
47589;SDS011;33316;52.298;9.056;2024-02-23T01:28:28;0.10;;;0.10;;
47589;SDS011;33316;52.298;9.056;2024-02-23T01:30:55;0.10;;;0.10;;
47589;SDS011;33316;52.298;9.056;2024-02-23T01:33:24;0.10;;;0.10;;
47589;SDS011;33316;52.298;9.056;2024-02-23T01:35:50;0.25;;;0.20;;
47589;SDS011;33316;52.298;9.056;2024-02-23T01:38:17;0.10;;;0.10;;
47589;SDS011;33316;52.298;9.056;2024-02-23T01:40:46;0.30;;;0.10;;
47589;SDS011;33316;52.298;9.056;2024-02-23T01:43:13;0.10;;;0.10;;
47589;SDS011;33316;52.298;9.056;2024-02-23T01:45:40;0.30;;;0.10;;
47589;SDS011;33316;52.298;9.056;2024-02-23T01:48:07;0.10;;;0.10;;
47589;SDS011;33316;52.298;9.056;2024-02-23T01:50:35;0.10;;;0.10;;
47589;SDS011;33316;52.298;9.056;2024-02-23T01:53:03;0.10;;;0.10;;
47589;SDS011;33316;52.298;9.056;2024-02-23T01:55:31;0.10;;;0.10;;
47589;SDS011;33316;52.298;9.056;2024-02-23T01:57:58;0.10;;;0.10;;
47589;SDS011;33316;52.298;9.056;2024-02-23T02:00:26;0.10;;;0.10;;
47589;SDS011;33316;52.298;9.056;2024-02-23T02:02:54;0.10;;;0.10;;
47589;SDS011;33316;52.298;9.056;2024-02-23T02:05:21;0.10;;;0.10;;
47589;SDS011;33316;52.298;9.056;2024-02-23T02:07:50;0.20;;;0.20;;
47589;SDS011;33316;52.298;9.056;2024-02-23T02:10:19;0.10;;;0.10;;
47589;SDS011;33316;52.298;9.056;2024-02-23T02:12:46;0.22;;;0.17;;
47589;SDS011;33316;52.298;9.056;2024-02-23T02:15:13;0.10;;;0.10;;
47589;SDS011;33316;52.298;9.056;2024-02-23T02:17:39;0.10;;;0.10;;
47589;SDS011;33316;52.298;9.056;2024-02-23T02:20:07;0.20;;;0.20;;
47589;SDS011;33316;52.298;9.056;2024-02-23T02:22:38;0.10;;;0.10;;
47589;SDS011;33316;52.298;9.056;2024-02-23T02:25:07;0.43;;;0.20;;
47589;SDS011;33316;52.298;9.056;2024-02-23T02:27:34;0.20;;;0.20;;
47589;SDS011;33316;52.298;9.056;2024-02-23T02:30:01;0.25;;;0.13;;
47589;SDS011;33316;52.298;9.056;2024-02-23T02:32:28;0.20;;;0.20;;
47589;SDS011;33316;52.298;9.056;2024-02-23T02:34:55;0.20;;;0.20;;
47589;SDS011;33316;52.298;9.056;2024-02-23T02:37:21;0.20;;;0.20;;
47589;SDS011;33316;52.298;9.056;2024-02-23T02:39:48;0.25;;;0.20;;
47589;SDS011;33316;52.298;9.056;2024-02-23T02:42:16;0.20;;;0.20;;
47589;SDS011;33316;52.298;9.056;2024-02-23T02:44:43;1.15;;;0.20;;
47589;SDS011;33316;52.298;9.056;2024-02-23T02:47:10;0.80;;;0.20;;
47589;SDS011;33316;52.298;9.056;2024-02-23T02:52:05;0.20;;;0.20;;
47589;SDS011;33316;52.298;9.056;2024-02-23T02:54:33;1.17;;;0.20;;
47589;SDS011;33316;52.298;9.056;2024-02-23T02:57:00;1.00;;;0.55;;
47589;SDS011;33316;52.298;9.056;2024-02-23T02:59:28;0.68;;;0.20;;
47589;SDS011;33316;52.298;9.056;2024-02-23T03:01:56;0.20;;;0.20;;
47589;SDS011;33316;52.298;9.056;2024-02-23T03:04:23;0.25;;;0.20;;
47589;SDS011;33316;52.298;9.056;2024-02-23T03:06:50;0.32;;;0.28;;
47589;SDS011;33316;52.298;9.056;2024-02-23T03:09:17;2.03;;;0.30;;
47589;SDS011;33316;52.298;9.056;2024-02-23T03:11:43;1.55;;;0.50;;
47589;SDS011;33316;52.298;9.056;2024-02-23T03:14:10;0.85;;;0.45;;
47589;SDS011;33316;52.298;9.056;2024-02-23T03:16:39;1.30;;;0.40;;
47589;SDS011;33316;52.298;9.056;2024-02-23T03:19:06;0.30;;;0.30;;
47589;SDS011;33316;52.298;9.056;2024-02-23T03:21:33;1.85;;;0.30;;
47589;SDS011;33316;52.298;9.056;2024-02-23T03:23:59;1.10;;;0.40;;
47589;SDS011;33316;52.298;9.056;2024-02-23T03:26:26;0.90;;;0.30;;
47589;SDS011;33316;52.298;9.056;2024-02-23T03:28:53;0.95;;;0.28;;
47589;SDS011;33316;52.298;9.056;2024-02-23T03:31:20;0.30;;;0.30;;
47589;SDS011;33316;52.298;9.056;2024-02-23T03:33:48;1.05;;;0.30;;
47589;SDS011;33316;52.298;9.056;2024-02-23T03:36:15;0.85;;;0.40;;
47589;SDS011;33316;52.298;9.056;2024-02-23T03:38:41;0.98;;;0.40;;
47589;SDS011;33316;52.298;9.056;2024-02-23T03:41:08;0.68;;;0.40;;
47589;SDS011;33316;52.298;9.056;2024-02-23T03:43:35;1.05;;;0.45;;
47589;SDS011;33316;52.298;9.056;2024-02-23T03:46:03;1.00;;;0.43;;
47589;SDS011;33316;52.298;9.056;2024-02-23T03:48:32;0.75;;;0.60;;
47589;SDS011;33316;52.298;9.056;2024-02-23T03:51:00;0.60;;;0.43;;
47589;SDS011;33316;52.298;9.056;2024-02-23T03:53:30;0.75;;;0.43;;
47589;SDS011;33316;52.298;9.056;2024-02-23T03:55:56;0.80;;;0.40;;
47589;SDS011;33316;52.298;9.056;2024-02-23T03:58:23;2.67;;;0.50;;
47589;SDS011;33316;52.298;9.056;2024-02-23T04:00:51;0.65;;;0.43;;
47589;SDS011;33316;52.298;9.056;2024-02-23T04:03:18;1.45;;;0.52;;
47589;SDS011;33316;52.298;9.056;2024-02-23T04:05:45;1.95;;;0.52;;
47589;SDS011;33316;52.298;9.056;2024-02-23T04:08:13;0.85;;;0.38;;
47589;SDS011;33316;52.298;9.056;2024-02-23T04:10:39;1.10;;;0.50;;
47589;SDS011;33316;52.298;9.056;2024-02-23T04:13:06;2.08;;;0.50;;
47589;SDS011;33316;52.298;9.056;2024-02-23T04:15:33;1.63;;;0.60;;
47589;SDS011;33316;52.298;9.056;2024-02-23T04:18:00;1.17;;;0.52;;
47589;SDS011;33316;52.298;9.056;2024-02-23T04:20:27;0.98;;;0.40;;
47589;SDS011;33316;52.298;9.056;2024-02-23T04:22:54;1.00;;;0.40;;
47589;SDS011;33316;52.298;9.056;2024-02-23T04:25:22;1.00;;;0.50;;
47589;SDS011;33316;52.298;9.056;2024-02-23T04:27:49;0.45;;;0.30;;
47589;SDS011;33316;52.298;9.056;2024-02-23T04:30:16;0.50;;;0.30;;
47589;SDS011;33316;52.298;9.056;2024-02-23T04:32:43;0.60;;;0.40;;
47589;SDS011;33316;52.298;9.056;2024-02-23T04:35:10;2.90;;;0.50;;
47589;SDS011;33316;52.298;9.056;2024-02-23T04:37:37;2.08;;;0.50;;
47589;SDS011;33316;52.298;9.056;2024-02-23T04:40:04;0.82;;;0.40;;
47589;SDS011;33316;52.298;9.056;2024-02-23T04:42:33;0.60;;;0.35;;
47589;SDS011;33316;52.298;9.056;2024-02-23T04:45:00;1.33;;;0.50;;
47589;SDS011;33316;52.298;9.056;2024-02-23T04:47:27;0.68;;;0.40;;
47589;SDS011;33316;52.298;9.056;2024-02-23T04:49:54;1.00;;;0.47;;
47589;SDS011;33316;52.298;9.056;2024-02-23T04:52:20;2.50;;;0.40;;
47589;SDS011;33316;52.298;9.056;2024-02-23T04:54:47;2.92;;;0.40;;
47589;SDS011;33316;52.298;9.056;2024-02-23T04:57:14;0.52;;;0.35;;
47589;SDS011;33316;52.298;9.056;2024-02-23T04:59:42;1.45;;;0.25;;
47589;SDS011;33316;52.298;9.056;2024-02-23T05:02:09;1.67;;;0.40;;
47589;SDS011;33316;52.298;9.056;2024-02-23T05:04:35;0.63;;;0.40;;
47589;SDS011;33316;52.298;9.056;2024-02-23T05:07:02;0.85;;;0.50;;
47589;SDS011;33316;52.298;9.056;2024-02-23T05:09:29;0.65;;;0.45;;
47589;SDS011;33316;52.298;9.056;2024-02-23T05:11:57;0.80;;;0.40;;
47589;SDS011;33316;52.298;9.056;2024-02-23T05:14:24;0.47;;;0.35;;
47589;SDS011;33316;52.298;9.056;2024-02-23T05:16:52;0.47;;;0.30;;
47589;SDS011;33316;52.298;9.056;2024-02-23T05:19:19;0.75;;;0.30;;
47589;SDS011;33316;52.298;9.056;2024-02-23T05:21:45;1.48;;;0.45;;
47589;SDS011;33316;52.298;9.056;2024-02-23T05:24:12;2.90;;;0.43;;
47589;SDS011;33316;52.298;9.056;2024-02-23T05:26:39;1.77;;;0.40;;
47589;SDS011;33316;52.298;9.056;2024-02-23T05:29:06;1.33;;;0.40;;
47589;SDS011;33316;52.298;9.056;2024-02-23T05:31:45;1.75;;;0.57;;
47589;SDS011;33316;52.298;9.056;2024-02-23T05:34:14;1.88;;;0.70;;
47589;SDS011;33316;52.298;9.056;2024-02-23T05:36:42;1.60;;;0.45;;
47589;SDS011;33316;52.298;9.056;2024-02-23T05:39:09;2.47;;;0.52;;
47589;SDS011;33316;52.298;9.056;2024-02-23T05:41:36;1.38;;;0.50;;
47589;SDS011;33316;52.298;9.056;2024-02-23T05:44:03;2.15;;;0.43;;
47589;SDS011;33316;52.298;9.056;2024-02-23T05:46:31;3.20;;;0.90;;
47589;SDS011;33316;52.298;9.056;2024-02-23T05:48:58;2.08;;;0.60;;
47589;SDS011;33316;52.298;9.056;2024-02-23T05:51:28;1.58;;;0.60;;
47589;SDS011;33316;52.298;9.056;2024-02-23T05:53:55;1.05;;;0.40;;
47589;SDS011;33316;52.298;9.056;2024-02-23T05:56:23;2.15;;;0.50;;
47589;SDS011;33316;52.298;9.056;2024-02-23T05:58:50;1.15;;;0.55;;
47589;SDS011;33316;52.298;9.056;2024-02-23T06:01:17;1.05;;;0.30;;
47589;SDS011;33316;52.298;9.056;2024-02-23T06:03:44;2.17;;;0.60;;
47589;SDS011;33316;52.298;9.056;2024-02-23T06:06:10;2.58;;;0.55;;
47589;SDS011;33316;52.298;9.056;2024-02-23T06:08:38;1.35;;;0.60;;
47589;SDS011;33316;52.298;9.056;2024-02-23T06:11:05;1.17;;;0.30;;
47589;SDS011;33316;52.298;9.056;2024-02-23T06:13:32;1.42;;;0.50;;
47589;SDS011;33316;52.298;9.056;2024-02-23T06:15:59;0.98;;;0.40;;
47589;SDS011;33316;52.298;9.056;2024-02-23T06:18:25;1.00;;;0.40;;
47589;SDS011;33316;52.298;9.056;2024-02-23T06:20:52;3.38;;;1.33;;
47589;SDS011;33316;52.298;9.056;2024-02-23T06:23:19;3.35;;;0.88;;
47589;SDS011;33316;52.298;9.056;2024-02-23T06:25:48;5.47;;;0.80;;
47589;SDS011;33316;52.298;9.056;2024-02-23T06:28:15;2.55;;;0.60;;
47589;SDS011;33316;52.298;9.056;2024-02-23T06:30:42;1.25;;;0.60;;
47589;SDS011;33316;52.298;9.056;2024-02-23T06:33:09;1.50;;;0.50;;
47589;SDS011;33316;52.298;9.056;2024-02-23T06:35:35;1.75;;;0.50;;
47589;SDS011;33316;52.298;9.056;2024-02-23T06:38:02;2.05;;;0.68;;
47589;SDS011;33316;52.298;9.056;2024-02-23T06:40:30;1.45;;;0.40;;
47589;SDS011;33316;52.298;9.056;2024-02-23T06:42:59;1.25;;;0.40;;
47589;SDS011;33316;52.298;9.056;2024-02-23T06:45:25;2.08;;;0.63;;
47589;SDS011;33316;52.298;9.056;2024-02-23T06:47:52;0.75;;;0.40;;
47589;SDS011;33316;52.298;9.056;2024-02-23T06:50:19;1.52;;;0.45;;
47589;SDS011;33316;52.298;9.056;2024-02-23T06:52:46;1.48;;;0.50;;
47589;SDS011;33316;52.298;9.056;2024-02-23T06:55:14;2.38;;;0.65;;
47589;SDS011;33316;52.298;9.056;2024-02-23T06:57:42;1.27;;;0.45;;
47589;SDS011;33316;52.298;9.056;2024-02-23T07:00:10;1.65;;;0.38;;
47589;SDS011;33316;52.298;9.056;2024-02-23T07:02:38;2.05;;;0.60;;
47589;SDS011;33316;52.298;9.056;2024-02-23T07:05:05;1.30;;;0.80;;
47589;SDS011;33316;52.298;9.056;2024-02-23T07:07:32;1.55;;;0.52;;
47589;SDS011;33316;52.298;9.056;2024-02-23T07:10:00;1.17;;;0.60;;
47589;SDS011;33316;52.298;9.056;2024-02-23T07:12:27;3.85;;;1.10;;
47589;SDS011;33316;52.298;9.056;2024-02-23T07:14:54;2.88;;;0.60;;
47589;SDS011;33316;52.298;9.056;2024-02-23T07:17:22;1.42;;;0.60;;
47589;SDS011;33316;52.298;9.056;2024-02-23T07:19:49;2.17;;;0.50;;
47589;SDS011;33316;52.298;9.056;2024-02-23T07:22:18;0.90;;;0.40;;
47589;SDS011;33316;52.298;9.056;2024-02-23T07:24:45;2.08;;;0.55;;
47589;SDS011;33316;52.298;9.056;2024-02-23T07:27:12;1.15;;;0.45;;
47589;SDS011;33316;52.298;9.056;2024-02-23T07:29:39;0.40;;;0.30;;
47589;SDS011;33316;52.298;9.056;2024-02-23T07:32:06;1.83;;;0.32;;
47589;SDS011;33316;52.298;9.056;2024-02-23T07:34:34;1.85;;;0.30;;
47589;SDS011;33316;52.298;9.056;2024-02-23T07:37:01;1.13;;;0.55;;
47589;SDS011;33316;52.298;9.056;2024-02-23T07:39:29;3.10;;;0.60;;
47589;SDS011;33316;52.298;9.056;2024-02-23T07:41:56;0.30;;;0.30;;
47589;SDS011;33316;52.298;9.056;2024-02-23T07:44:23;1.58;;;0.50;;
47589;SDS011;33316;52.298;9.056;2024-02-23T07:46:53;0.55;;;0.30;;
47589;SDS011;33316;52.298;9.056;2024-02-23T07:49:20;1.20;;;0.30;;
47589;SDS011;33316;52.298;9.056;2024-02-23T07:51:49;0.93;;;0.40;;
47589;SDS011;33316;52.298;9.056;2024-02-23T07:54:15;1.02;;;0.40;;
47589;SDS011;33316;52.298;9.056;2024-02-23T07:56:42;1.30;;;0.40;;
47589;SDS011;33316;52.298;9.056;2024-02-23T07:59:09;0.80;;;0.32;;
47589;SDS011;33316;52.298;9.056;2024-02-23T08:01:36;1.40;;;0.50;;
47589;SDS011;33316;52.298;9.056;2024-02-23T08:04:03;2.25;;;0.47;;
47589;SDS011;33316;52.298;9.056;2024-02-23T08:06:30;1.33;;;0.40;;
47589;SDS011;33316;52.298;9.056;2024-02-23T08:08:58;1.70;;;0.40;;
47589;SDS011;33316;52.298;9.056;2024-02-23T08:11:25;1.05;;;0.32;;
47589;SDS011;33316;52.298;9.056;2024-02-23T08:13:51;1.10;;;0.40;;
47589;SDS011;33316;52.298;9.056;2024-02-23T08:16:18;1.92;;;0.57;;
47589;SDS011;33316;52.298;9.056;2024-02-23T08:18:45;3.10;;;0.75;;
47589;SDS011;33316;52.298;9.056;2024-02-23T08:21:12;1.25;;;0.45;;
47589;SDS011;33316;52.298;9.056;2024-02-23T08:23:39;0.77;;;0.30;;
47589;SDS011;33316;52.298;9.056;2024-02-23T08:26:07;0.75;;;0.28;;
47589;SDS011;33316;52.298;9.056;2024-02-23T08:28:35;0.90;;;0.45;;
47589;SDS011;33316;52.298;9.056;2024-02-23T08:31:02;1.25;;;0.57;;
47589;SDS011;33316;52.298;9.056;2024-02-23T08:33:29;1.33;;;0.50;;
47589;SDS011;33316;52.298;9.056;2024-02-23T08:35:55;1.58;;;0.30;;
47589;SDS011;33316;52.298;9.056;2024-02-23T08:38:22;1.33;;;0.45;;
47589;SDS011;33316;52.298;9.056;2024-02-23T08:40:49;2.28;;;0.73;;
47589;SDS011;33316;52.298;9.056;2024-02-23T08:43:17;1.20;;;0.40;;
47589;SDS011;33316;52.298;9.056;2024-02-23T08:45:45;0.93;;;0.40;;
47589;SDS011;33316;52.298;9.056;2024-02-23T08:48:12;2.15;;;0.50;;
47589;SDS011;33316;52.298;9.056;2024-02-23T08:50:40;2.42;;;0.45;;
47589;SDS011;33316;52.298;9.056;2024-02-23T08:53:07;2.28;;;0.40;;
47589;SDS011;33316;52.298;9.056;2024-02-23T08:55:33;2.80;;;0.50;;
47589;SDS011;33316;52.298;9.056;2024-02-23T08:58:00;3.13;;;0.50;;
47589;SDS011;33316;52.298;9.056;2024-02-23T09:00:28;2.17;;;0.50;;
47589;SDS011;33316;52.298;9.056;2024-02-23T09:02:55;1.10;;;0.43;;
47589;SDS011;33316;52.298;9.056;2024-02-23T09:05:22;1.58;;;0.50;;
47589;SDS011;33316;52.298;9.056;2024-02-23T09:07:49;3.42;;;0.47;;
47589;SDS011;33316;52.298;9.056;2024-02-23T09:10:16;1.52;;;0.43;;
47589;SDS011;33316;52.298;9.056;2024-02-23T09:12:43;2.13;;;0.25;;
47589;SDS011;33316;52.298;9.056;2024-02-23T09:15:10;0.60;;;0.30;;
47589;SDS011;33316;52.298;9.056;2024-02-23T09:17:39;2.08;;;0.30;;
47589;SDS011;33316;52.298;9.056;2024-02-23T09:20:06;2.25;;;0.50;;
47589;SDS011;33316;52.298;9.056;2024-02-23T09:22:33;1.27;;;0.40;;
47589;SDS011;33316;52.298;9.056;2024-02-23T09:25:01;1.73;;;0.68;;
47589;SDS011;33316;52.298;9.056;2024-02-23T09:27:30;1.13;;;0.43;;
47589;SDS011;33316;52.298;9.056;2024-02-23T09:29:57;1.98;;;0.40;;
47589;SDS011;33316;52.298;9.056;2024-02-23T09:32:24;1.75;;;0.60;;
47589;SDS011;33316;52.298;9.056;2024-02-23T09:34:52;0.93;;;0.32;;
47589;SDS011;33316;52.298;9.056;2024-02-23T09:37:19;2.67;;;0.50;;
47589;SDS011;33316;52.298;9.056;2024-02-23T09:39:45;0.45;;;0.30;;
47589;SDS011;33316;52.298;9.056;2024-02-23T09:42:12;2.38;;;0.50;;
47589;SDS011;33316;52.298;9.056;2024-02-23T09:44:39;2.67;;;0.77;;
47589;SDS011;33316;52.298;9.056;2024-02-23T09:47:07;1.55;;;0.60;;
47589;SDS011;33316;52.298;9.056;2024-02-23T09:49:37;2.17;;;0.88;;
47589;SDS011;33316;52.298;9.056;2024-02-23T09:52:08;2.88;;;1.10;;
47589;SDS011;33316;52.298;9.056;2024-02-23T09:54:36;2.28;;;1.00;;
47589;SDS011;33316;52.298;9.056;2024-02-23T09:57:04;3.38;;;1.02;;
47589;SDS011;33316;52.298;9.056;2024-02-23T09:59:34;2.25;;;0.70;;
47589;SDS011;33316;52.298;9.056;2024-02-23T10:02:01;1.17;;;0.50;;
47589;SDS011;33316;52.298;9.056;2024-02-23T10:04:29;1.27;;;0.47;;
47589;SDS011;33316;52.298;9.056;2024-02-23T10:06:56;2.85;;;0.52;;
47589;SDS011;33316;52.298;9.056;2024-02-23T10:09:24;0.77;;;0.40;;
47589;SDS011;33316;52.298;9.056;2024-02-23T10:11:52;1.27;;;0.30;;
47589;SDS011;33316;52.298;9.056;2024-02-23T10:14:20;1.50;;;0.40;;
47589;SDS011;33316;52.298;9.056;2024-02-23T10:16:46;1.35;;;0.30;;
47589;SDS011;33316;52.298;9.056;2024-02-23T10:19:13;0.60;;;0.20;;
47589;SDS011;33316;52.298;9.056;2024-02-23T10:21:40;1.65;;;0.50;;
47589;SDS011;33316;52.298;9.056;2024-02-23T10:24:07;0.75;;;0.40;;
47589;SDS011;33316;52.298;9.056;2024-02-23T10:26:35;0.43;;;0.28;;
47589;SDS011;33316;52.298;9.056;2024-02-23T10:29:02;2.20;;;0.40;;
47589;SDS011;33316;52.298;9.056;2024-02-23T10:31:29;1.27;;;0.40;;
47589;SDS011;33316;52.298;9.056;2024-02-23T10:34:00;0.40;;;0.40;;
47589;SDS011;33316;52.298;9.056;2024-02-23T10:36:35;1.83;;;0.40;;
47589;SDS011;33316;52.298;9.056;2024-02-23T10:39:05;1.27;;;0.30;;
47589;SDS011;33316;52.298;9.056;2024-02-23T10:41:36;1.15;;;0.40;;
47589;SDS011;33316;52.298;9.056;2024-02-23T10:44:04;3.22;;;0.40;;
47589;SDS011;33316;52.298;9.056;2024-02-23T10:46:32;1.17;;;0.88;;
47589;SDS011;33316;52.298;9.056;2024-02-23T10:48:59;1.98;;;0.98;;
47589;SDS011;33316;52.298;9.056;2024-02-23T10:51:29;2.35;;;0.70;;
47589;SDS011;33316;52.298;9.056;2024-02-23T10:53:58;2.05;;;0.50;;
47589;SDS011;33316;52.298;9.056;2024-02-23T10:56:26;1.20;;;0.40;;
47589;SDS011;33316;52.298;9.056;2024-02-23T10:58:55;1.92;;;0.50;;
47589;SDS011;33316;52.298;9.056;2024-02-23T11:01:21;2.72;;;0.70;;
47589;SDS011;33316;52.298;9.056;2024-02-23T11:03:51;1.05;;;0.38;;
47589;SDS011;33316;52.298;9.056;2024-02-23T11:06:19;0.73;;;0.25;;
47589;SDS011;33316;52.298;9.056;2024-02-23T11:08:47;2.75;;;0.55;;
47589;SDS011;33316;52.298;9.056;2024-02-23T11:11:15;0.63;;;0.20;;
47589;SDS011;33316;52.298;9.056;2024-02-23T11:13:43;2.05;;;0.60;;
47589;SDS011;33316;52.298;9.056;2024-02-23T11:16:20;0.80;;;0.38;;
47589;SDS011;33316;52.298;9.056;2024-02-23T11:18:48;0.85;;;0.40;;
47589;SDS011;33316;52.298;9.056;2024-02-23T11:21:15;1.45;;;0.55;;
47589;SDS011;33316;52.298;9.056;2024-02-23T11:23:42;2.20;;;0.70;;
47589;SDS011;33316;52.298;9.056;2024-02-23T11:26:09;5.22;;;2.40;;
47589;SDS011;33316;52.298;9.056;2024-02-23T11:28:46;3.03;;;1.80;;
47589;SDS011;33316;52.298;9.056;2024-02-23T11:31:19;1.75;;;0.95;;
47589;SDS011;33316;52.298;9.056;2024-02-23T11:33:48;1.15;;;0.65;;
47589;SDS011;33316;52.298;9.056;2024-02-23T11:36:22;1.33;;;0.60;;
47589;SDS011;33316;52.298;9.056;2024-02-23T11:38:52;1.38;;;0.65;;
47589;SDS011;33316;52.298;9.056;2024-02-23T11:41:18;2.55;;;0.65;;
47589;SDS011;33316;52.298;9.056;2024-02-23T11:43:47;0.82;;;0.40;;
47589;SDS011;33316;52.298;9.056;2024-02-23T11:46:14;2.50;;;0.55;;
47589;SDS011;33316;52.298;9.056;2024-02-23T11:48:44;0.88;;;0.40;;
47589;SDS011;33316;52.298;9.056;2024-02-23T11:51:12;1.48;;;0.50;;
47589;SDS011;33316;52.298;9.056;2024-02-23T11:53:41;1.50;;;0.68;;
47589;SDS011;33316;52.298;9.056;2024-02-23T11:56:08;1.17;;;0.60;;
47589;SDS011;33316;52.298;9.056;2024-02-23T11:58:36;0.63;;;0.40;;
47589;SDS011;33316;52.298;9.056;2024-02-23T12:01:04;0.47;;;0.35;;
47589;SDS011;33316;52.298;9.056;2024-02-23T12:03:33;1.38;;;0.45;;
47589;SDS011;33316;52.298;9.056;2024-02-23T12:06:03;1.20;;;0.40;;
47589;SDS011;33316;52.298;9.056;2024-02-23T12:08:30;1.40;;;0.50;;
47589;SDS011;33316;52.298;9.056;2024-02-23T12:11:03;1.40;;;0.60;;
47589;SDS011;33316;52.298;9.056;2024-02-23T12:13:31;1.65;;;0.60;;
47589;SDS011;33316;52.298;9.056;2024-02-23T12:15:58;1.95;;;0.50;;
47589;SDS011;33316;52.298;9.056;2024-02-23T12:18:25;1.80;;;0.47;;
47589;SDS011;33316;52.298;9.056;2024-02-23T12:20:59;1.23;;;0.45;;
47589;SDS011;33316;52.298;9.056;2024-02-23T12:23:37;2.20;;;0.50;;
47589;SDS011;33316;52.298;9.056;2024-02-23T12:26:05;0.90;;;0.40;;
47589;SDS011;33316;52.298;9.056;2024-02-23T12:28:32;1.30;;;0.35;;
47589;SDS011;33316;52.298;9.056;2024-02-23T12:30:59;2.40;;;0.50;;
47589;SDS011;33316;52.298;9.056;2024-02-23T12:33:27;1.52;;;0.30;;
47589;SDS011;33316;52.298;9.056;2024-02-23T12:35:55;0.43;;;0.30;;
47589;SDS011;33316;52.298;9.056;2024-02-23T12:38:23;1.17;;;0.35;;
47589;SDS011;33316;52.298;9.056;2024-02-23T12:40:50;1.77;;;0.32;;
47589;SDS011;33316;52.298;9.056;2024-02-23T12:43:18;2.03;;;0.30;;
47589;SDS011;33316;52.298;9.056;2024-02-23T12:45:46;0.80;;;0.30;;
47589;SDS011;33316;52.298;9.056;2024-02-23T12:48:15;0.95;;;0.30;;
47589;SDS011;33316;52.298;9.056;2024-02-23T12:50:44;1.15;;;0.30;;
47589;SDS011;33316;52.298;9.056;2024-02-23T12:53:11;1.17;;;0.22;;
47589;SDS011;33316;52.298;9.056;2024-02-23T12:55:59;1.17;;;0.30;;
47589;SDS011;33316;52.298;9.056;2024-02-23T12:58:27;0.57;;;0.30;;
47589;SDS011;33316;52.298;9.056;2024-02-23T13:00:53;1.52;;;0.22;;
47589;SDS011;33316;52.298;9.056;2024-02-23T13:03:21;0.63;;;0.28;;
47589;SDS011;33316;52.298;9.056;2024-02-23T13:05:49;0.93;;;0.30;;
47589;SDS011;33316;52.298;9.056;2024-02-23T13:08:16;0.60;;;0.30;;
47589;SDS011;33316;52.298;9.056;2024-02-23T13:10:45;0.45;;;0.28;;
47589;SDS011;33316;52.298;9.056;2024-02-23T13:13:19;1.27;;;0.30;;
47589;SDS011;33316;52.298;9.056;2024-02-23T13:15:46;0.57;;;0.38;;
47589;SDS011;33316;52.298;9.056;2024-02-23T13:18:14;0.85;;;0.30;;
47589;SDS011;33316;52.298;9.056;2024-02-23T13:20:41;1.48;;;0.40;;
47589;SDS011;33316;52.298;9.056;2024-02-23T13:23:09;0.75;;;0.30;;
47589;SDS011;33316;52.298;9.056;2024-02-23T13:25:36;0.90;;;0.50;;
47589;SDS011;33316;52.298;9.056;2024-02-23T13:28:08;0.93;;;0.30;;
47589;SDS011;33316;52.298;9.056;2024-02-23T13:30:50;0.82;;;0.30;;
47589;SDS011;33316;52.298;9.056;2024-02-23T13:33:18;0.35;;;0.20;;
47589;SDS011;33316;52.298;9.056;2024-02-23T13:35:47;1.95;;;0.40;;
47589;SDS011;33316;52.298;9.056;2024-02-23T13:38:14;1.73;;;0.40;;
47589;SDS011;33316;52.298;9.056;2024-02-23T13:40:42;0.63;;;0.28;;
47589;SDS011;33316;52.298;9.056;2024-02-23T13:43:10;0.82;;;0.40;;
47589;SDS011;33316;52.298;9.056;2024-02-23T13:45:47;0.65;;;0.30;;
47589;SDS011;33316;52.298;9.056;2024-02-23T13:48:15;0.60;;;0.20;;
47589;SDS011;33316;52.298;9.056;2024-02-23T13:50:44;0.80;;;0.30;;
47589;SDS011;33316;52.298;9.056;2024-02-23T13:53:13;0.40;;;0.25;;
47589;SDS011;33316;52.298;9.056;2024-02-23T13:55:40;1.63;;;0.30;;
47589;SDS011;33316;52.298;9.056;2024-02-23T13:58:11;0.95;;;0.40;;
47589;SDS011;33316;52.298;9.056;2024-02-23T14:00:41;0.68;;;0.30;;
47589;SDS011;33316;52.298;9.056;2024-02-23T14:03:10;1.73;;;0.40;;
47589;SDS011;33316;52.298;9.056;2024-02-23T14:05:43;1.48;;;0.30;;
47589;SDS011;33316;52.298;9.056;2024-02-23T14:08:13;0.85;;;0.30;;
47589;SDS011;33316;52.298;9.056;2024-02-23T14:10:43;0.55;;;0.28;;
47589;SDS011;33316;52.298;9.056;2024-02-23T14:13:12;0.52;;;0.20;;
47589;SDS011;33316;52.298;9.056;2024-02-23T14:15:39;1.75;;;0.40;;
47589;SDS011;33316;52.298;9.056;2024-02-23T14:18:06;0.57;;;0.30;;
47589;SDS011;33316;52.298;9.056;2024-02-23T14:20:33;1.95;;;0.70;;
47589;SDS011;33316;52.298;9.056;2024-02-23T14:23:00;1.38;;;0.20;;
47589;SDS011;33316;52.298;9.056;2024-02-23T14:25:26;0.43;;;0.28;;
47589;SDS011;33316;52.298;9.056;2024-02-23T14:27:53;0.60;;;0.20;;
47589;SDS011;33316;52.298;9.056;2024-02-23T14:30:22;1.23;;;0.32;;
47589;SDS011;33316;52.298;9.056;2024-02-23T14:32:48;2.75;;;0.40;;
47589;SDS011;33316;52.298;9.056;2024-02-23T14:35:15;1.17;;;0.30;;
47589;SDS011;33316;52.298;9.056;2024-02-23T14:37:42;1.00;;;0.30;;
47589;SDS011;33316;52.298;9.056;2024-02-23T14:40:10;2.17;;;0.30;;
47589;SDS011;33316;52.298;9.056;2024-02-23T14:42:39;2.50;;;0.47;;
47589;SDS011;33316;52.298;9.056;2024-02-23T14:45:06;1.88;;;0.30;;
47589;SDS011;33316;52.298;9.056;2024-02-23T14:47:34;0.93;;;0.30;;
47589;SDS011;33316;52.298;9.056;2024-02-23T14:50:03;1.52;;;0.30;;
47589;SDS011;33316;52.298;9.056;2024-02-23T14:52:30;0.30;;;0.20;;